createdAt,value
2024-02-09T00:00:13.056Z,100141.72
2024-02-09T00:02:41.162Z,100178.72
2024-02-09T00:05:10.250Z,100170.94
2024-02-09T00:07:38.120Z,100158.88
2024-02-09T00:10:08.510Z,100171.75
2024-02-09T00:12:40.250Z,100163.13
2024-02-09T00:15:08.422Z,100176.91
2024-02-09T00:17:45.515Z,100170.84
2024-02-09T00:20:15.107Z,100170.84
2024-02-09T00:22:46.842Z,100171.69
2024-02-09T00:25:14.251Z,100195.84
2024-02-09T00:27:41.622Z,100143.28
2024-02-09T00:30:09.926Z,100175.97
2024-02-09T00:32:37.917Z,100102.00
2024-02-09T00:35:06.916Z,100162.13
2024-02-09T00:37:35.898Z,100169.03
2024-02-09T00:40:03.383Z,100168.13
2024-02-09T00:42:30.806Z,100116.50
2024-02-09T00:45:01.601Z,100161.22
2024-02-09T00:47:28.892Z,100161.19
2024-02-09T00:50:00.614Z,100147.38
2024-02-09T00:52:28.207Z,100165.50
2024-02-09T00:54:56.884Z,100168.91
2024-02-09T00:57:26.308Z,100164.59
2024-02-09T00:59:53.671Z,100145.59
2024-02-09T01:02:40.961Z,100148.94
2024-02-09T01:05:09.448Z,100085.25
2024-02-09T01:07:36.874Z,100129.94
2024-02-09T01:10:15.656Z,100140.25
2024-02-09T01:12:43.160Z,100133.38
2024-02-09T01:15:11.056Z,100134.16
2024-02-09T01:17:38.392Z,100129.78
2024-02-09T01:20:06.889Z,100079.03
2024-02-09T01:22:34.326Z,100096.97
2024-02-09T01:25:01.703Z,100120.97
2024-02-09T01:27:35.151Z,100132.94
2024-02-09T01:30:02.605Z,100125.03
2024-02-09T01:32:30.234Z,100088.03
2024-02-09T01:34:59.484Z,100117.09
2024-02-09T01:37:26.760Z,100111.84
2024-02-09T01:39:54.068Z,100060.31
2024-02-09T01:42:30.959Z,100069.75
2024-02-09T01:44:59.785Z,100114.38
2024-02-09T01:47:29.249Z,100107.47
2024-02-09T01:49:58.631Z,100096.31
2024-02-09T01:52:27.354Z,100103.97
2024-02-09T01:54:54.805Z,100093.59
2024-02-09T01:57:22.224Z,99998.28
2024-02-09T01:59:53.732Z,100079.81
2024-02-09T02:02:22.789Z,100085.81
2024-02-09T02:04:50.495Z,100041.09
2024-02-09T02:07:20.134Z,100076.19
2024-02-09T02:09:47.559Z,100027.28
2024-02-09T02:12:14.885Z,100058.91
2024-02-09T02:14:46.470Z,100050.28
2024-02-09T02:17:13.810Z,99993.63
2024-02-09T02:19:43.498Z,100045.09
2024-02-09T02:22:18.666Z,100044.25
2024-02-09T02:24:54.336Z,100053.72
2024-02-09T02:27:21.540Z,100057.94
2024-02-09T02:29:48.809Z,100053.56
2024-02-09T02:32:16.091Z,100002.94
2024-02-09T02:34:44.883Z,100046.63
2024-02-09T02:37:12.194Z,99999.34
2024-02-09T02:39:41.840Z,99982.25
2024-02-09T02:42:10.030Z,100007.97
2024-02-09T02:44:37.382Z,100039.66
2024-02-09T02:47:04.775Z,100013.09
2024-02-09T02:49:32.174Z,100028.50
2024-02-09T02:52:01.021Z,100036.19
2024-02-09T02:54:28.239Z,100040.50
2024-02-09T02:56:55.535Z,100001.03
2024-02-09T02:59:26.301Z,100034.44
2024-02-09T03:01:57.921Z,99988.13
2024-02-09T03:04:25.407Z,100052.56
2024-02-09T03:07:13.701Z,100049.06
2024-02-09T03:09:53.830Z,100049.94
2024-02-09T03:12:21.865Z,100049.03
2024-02-09T03:14:49.337Z,100010.44
2024-02-09T03:17:16.568Z,100044.69
2024-02-09T03:19:44.830Z,100033.44
2024-02-09T03:22:12.066Z,100040.34
2024-02-09T03:24:39.307Z,100044.63
2024-02-09T03:27:12.395Z,100019.72
2024-02-09T03:29:48.314Z,100039.41
2024-02-09T03:32:15.647Z,100034.19
2024-02-09T03:34:47.355Z,100043.75
2024-02-09T03:37:14.740Z,100042.84
2024-02-09T03:39:41.995Z,100049.69
2024-02-09T03:42:09.293Z,100048.84
2024-02-09T03:44:42.512Z,100041.06
2024-02-09T03:47:13.302Z,100039.25
2024-02-09T03:49:40.609Z,100018.63
2024-02-09T03:52:07.792Z,100030.59
2024-02-09T03:54:35.070Z,100029.69
2024-02-09T03:57:02.367Z,100016.75
2024-02-09T03:59:29.828Z,100010.63
2024-02-09T04:02:16.202Z,100003.72
2024-02-09T04:04:43.943Z,99989.94
2024-02-09T04:07:13.628Z,99974.44
2024-02-09T04:10:03.378Z,99975.19
2024-02-09T04:12:28.039Z,99964.97
2024-02-09T04:14:59.561Z,99965.75
2024-02-09T04:17:48.179Z,99988.13
2024-02-09T04:20:20.081Z,99978.69
2024-02-09T04:22:47.338Z,99996.72
2024-02-09T04:25:15.076Z,99998.41
2024-02-09T04:27:44.552Z,99954.81
2024-02-09T04:30:12.514Z,99995.06
2024-02-09T04:32:40.016Z,99995.72
2024-02-09T04:35:09.292Z,99987.97
2024-02-09T04:37:36.898Z,99992.34
2024-02-09T04:40:04.951Z,99991.47
2024-02-09T04:42:32.465Z,99982.00
2024-02-09T04:44:59.661Z,99990.59
2024-02-09T04:47:26.940Z,99963.88
2024-02-09T04:49:54.320Z,99939.88
2024-02-09T04:52:23.186Z,99930.47
2024-02-09T04:54:52.162Z,99981.88
2024-02-09T04:57:19.891Z,99976.66
2024-02-09T04:59:47.176Z,99941.53
2024-02-09T05:02:16.182Z,99978.44
2024-02-09T05:04:49.656Z,99975.00
2024-02-09T05:07:17.614Z,99967.31
2024-02-09T05:09:46.785Z,99972.63
2024-02-09T05:12:14.081Z,99969.34
2024-02-09T05:14:42.306Z,99966.75
2024-02-09T05:17:11.603Z,99968.53
2024-02-09T05:19:39.301Z,99979.00
2024-02-09T05:22:06.754Z,99965.41
2024-02-09T05:24:38.502Z,99967.22
2024-02-09T05:27:09.061Z,99968.13
2024-02-09T05:29:36.458Z,99970.88
2024-02-09T05:32:08.574Z,99968.34
2024-02-09T05:34:38.091Z,99961.66
2024-02-09T05:37:09.911Z,99972.94
2024-02-09T05:39:42.543Z,99966.16
2024-02-09T05:42:11.313Z,99987.66
2024-02-09T05:44:38.657Z,99918.16
2024-02-09T05:47:09.607Z,99933.66
2024-02-09T05:49:37.176Z,99998.88
2024-02-09T05:52:04.576Z,99991.94
2024-02-09T05:54:31.966Z,99963.72
2024-02-09T05:57:03.648Z,99992.84
2024-02-09T05:59:32.330Z,99995.34
2024-02-09T06:02:01.127Z,99984.06
2024-02-09T06:04:48.384Z,99961.78
2024-02-09T06:07:15.684Z,99987.38
2024-02-09T06:09:45.004Z,99957.47
2024-02-09T06:12:13.202Z,99968.69
2024-02-09T06:14:42.098Z,100002.78
2024-02-09T06:17:09.304Z,99996.59
2024-02-09T06:19:41.028Z,99986.13
2024-02-09T06:22:08.272Z,99960.25
2024-02-09T06:24:35.854Z,99996.25
2024-02-09T06:27:03.011Z,99989.19
2024-02-09T06:29:32.912Z,100016.66
2024-02-09T06:32:06.115Z,100008.69
2024-02-09T06:34:47.011Z,99953.59
2024-02-09T06:37:17.631Z,100002.94
2024-02-09T06:39:44.955Z,100006.22
2024-02-09T06:42:19.134Z,100004.94
2024-02-09T06:44:46.506Z,100000.38
2024-02-09T06:47:15.735Z,100005.84
2024-02-09T06:49:45.662Z,99930.00
2024-02-09T06:52:13.139Z,100011.81
2024-02-09T06:54:40.799Z,100011.44
2024-02-09T06:57:08.049Z,100021.41
2024-02-09T06:59:35.374Z,100023.53
2024-02-09T07:02:02.553Z,100021.34
2024-02-09T07:04:31.515Z,100021.72
2024-02-09T07:06:58.821Z,99993.03
2024-02-09T07:09:33.500Z,100024.75
2024-02-09T07:12:02.988Z,100025.84
2024-02-09T07:14:31.698Z,100025.44
2024-02-09T07:16:59.051Z,100017.78
2024-02-09T07:19:26.445Z,99962.50
2024-02-09T07:21:58.105Z,99981.44
2024-02-09T07:24:40.355Z,100022.84
2024-02-09T07:27:07.643Z,99938.91
2024-02-09T07:29:35.065Z,99988.63
2024-02-09T07:32:02.577Z,99924.44
2024-02-09T07:34:30.692Z,99925.72
2024-02-09T07:36:59.572Z,99952.47
2024-02-09T07:39:27.089Z,99938.91
2024-02-09T07:41:54.543Z,99932.88
2024-02-09T07:44:21.779Z,99935.59
2024-02-09T07:46:49.520Z,99856.72
2024-02-09T07:49:22.773Z,99898.63
2024-02-09T07:51:50.308Z,99891.28
2024-02-09T07:54:19.083Z,99912.94
2024-02-09T07:56:48.764Z,99844.47
2024-02-09T07:59:16.334Z,99895.44
2024-02-09T08:01:48.044Z,99892.75
2024-02-09T08:04:15.811Z,99898.00
2024-02-09T08:06:43.096Z,99904.31
2024-02-09T08:09:10.315Z,99894.34
2024-02-09T08:11:38.924Z,99888.78
2024-02-09T08:14:06.328Z,99902.19
2024-02-09T08:16:35.233Z,99890.50
2024-02-09T08:19:02.713Z,99902.63
2024-02-09T08:21:30.566Z,99878.84
2024-02-09T08:23:59.731Z,99883.16
2024-02-09T08:26:32.682Z,99870.03
2024-02-09T08:29:07.259Z,99850.47
2024-02-09T08:31:36.654Z,99852.28
2024-02-09T08:34:04.303Z,99836.34
2024-02-09T08:36:33.032Z,99851.59
2024-02-09T08:39:00.309Z,99843.44
2024-02-09T08:41:32.200Z,99846.84
2024-02-09T08:44:04.311Z,99815.22
2024-02-09T08:46:33.586Z,99832.22
2024-02-09T08:49:03.008Z,99823.16
2024-02-09T08:51:30.856Z,99837.84
2024-02-09T08:53:58.316Z,99831.06
2024-02-09T08:56:26.925Z,99831.25
2024-02-09T08:58:54.288Z,99796.69
2024-02-09T09:01:26.018Z,99827.56
2024-02-09T09:03:55.224Z,99811.56
2024-02-09T09:06:22.771Z,99798.09
2024-02-09T09:08:50.433Z,99791.22
2024-02-09T09:11:17.748Z,99796.28
2024-02-09T09:13:45.093Z,99799.22
2024-02-09T09:16:14.441Z,99808.06
2024-02-09T09:18:41.830Z,99800.16
2024-02-09T09:21:10.487Z,99809.38
2024-02-09T09:23:37.733Z,99794.06
2024-02-09T09:26:13.071Z,99795.81
2024-02-09T09:28:49.180Z,99787.16
2024-02-09T09:31:16.504Z,99782.72
2024-02-09T09:33:48.185Z,99773.22
2024-02-09T09:36:16.818Z,99783.06
2024-02-09T09:38:44.031Z,99728.19
2024-02-09T09:41:12.660Z,99759.06
2024-02-09T09:43:40.392Z,99760.97
2024-02-09T09:46:11.666Z,99761.06
2024-02-09T09:48:40.295Z,99737.94
2024-02-09T09:51:12.138Z,99775.38
2024-02-09T09:53:46.772Z,99793.03
2024-02-09T09:56:15.809Z,99788.22
2024-02-09T09:58:56.490Z,99787.28
2024-02-09T10:01:26.900Z,99747.84
2024-02-09T10:03:56.442Z,99781.91
2024-02-09T10:06:25.843Z,99782.38
2024-02-09T10:08:54.752Z,99791.72
2024-02-09T10:11:22.274Z,99792.94
2024-02-09T10:13:51.626Z,99789.00
2024-02-09T10:16:20.745Z,99769.31
2024-02-09T10:18:48.792Z,99799.28
2024-02-09T10:21:16.217Z,99793.13
2024-02-09T10:23:46.352Z,99762.91
2024-02-09T10:26:28.603Z,99765.28
2024-02-09T10:29:00.006Z,99744.72
2024-02-09T10:31:27.126Z,99786.53
2024-02-09T10:33:55.115Z,99779.00
2024-02-09T10:36:24.103Z,99790.56
2024-02-09T10:38:51.642Z,99795.00
2024-02-09T10:41:25.478Z,99794.88
2024-02-09T10:43:59.753Z,99769.03
2024-02-09T10:46:29.165Z,99759.38
2024-02-09T10:49:02.800Z,99770.91
2024-02-09T10:51:36.758Z,99772.06
2024-02-09T10:54:10.522Z,99780.59
2024-02-09T10:56:41.829Z,99761.50
2024-02-09T10:59:10.398Z,99745.63
2024-02-09T11:01:38.774Z,99758.03
2024-02-09T11:04:06.480Z,99746.50
2024-02-09T11:06:35.092Z,99742.72
2024-02-09T11:09:02.935Z,99739.44
2024-02-09T11:11:33.467Z,99743.75
2024-02-09T11:14:09.924Z,99732.44
2024-02-09T11:16:44.862Z,99733.44
2024-02-09T11:19:15.396Z,99718.00
2024-02-09T11:21:46.348Z,99710.19
2024-02-09T11:24:14.270Z,99729.97
2024-02-09T11:26:52.441Z,99727.31
2024-02-09T11:29:21.593Z,99694.09
2024-02-09T11:31:50.736Z,99741.31
2024-02-09T11:34:18.740Z,99730.66
2024-02-09T11:36:46.152Z,99723.97
2024-02-09T11:39:15.103Z,99739.50
2024-02-09T11:41:44.461Z,99732.22
2024-02-09T11:44:12.804Z,99722.25
2024-02-09T11:46:51.679Z,99710.69
2024-02-09T11:49:23.300Z,99733.03
2024-02-09T11:51:54.365Z,99729.16
2024-02-09T11:54:22.263Z,99726.56
2024-02-09T11:56:54.001Z,99724.16
2024-02-09T11:59:21.395Z,99682.31
2024-02-09T12:01:50.247Z,99725.84
2024-02-09T12:04:17.659Z,99724.03
2024-02-09T12:06:45.095Z,99723.28
2024-02-09T12:09:14.792Z,99663.88
2024-02-09T12:11:42.429Z,99711.66
2024-02-09T12:14:10.217Z,99703.16
2024-02-09T12:16:37.820Z,99682.56
2024-02-09T12:19:06.819Z,99716.06
2024-02-09T12:21:38.323Z,99668.56
2024-02-09T12:24:06.133Z,99667.06
2024-02-09T12:26:37.503Z,99690.19
2024-02-09T12:29:11.679Z,99688.50
2024-02-09T12:31:40.255Z,99698.44
2024-02-09T12:34:14.135Z,99700.44
2024-02-09T12:36:43.777Z,99693.03
2024-02-09T12:39:13.379Z,99669.22
2024-02-09T12:41:40.708Z,99698.00
2024-02-09T12:44:08.025Z,99689.41
2024-02-09T12:46:35.335Z,99683.38
2024-02-09T12:49:02.756Z,99690.88
2024-02-09T12:54:20.302Z,99681.41
2024-02-09T12:56:47.868Z,99699.94
2024-02-09T12:59:15.093Z,99655.63
2024-02-09T13:01:42.728Z,99708.78
2024-02-09T13:04:12.299Z,99705.72
2024-02-09T13:06:42.252Z,99709.97
2024-02-09T13:09:09.552Z,99708.38
2024-02-09T13:11:36.946Z,99709.78
2024-02-09T13:14:04.243Z,99713.28
2024-02-09T13:16:31.652Z,99717.56
2024-02-09T13:19:03.493Z,99697.56
2024-02-09T13:21:30.920Z,99700.53
2024-02-09T13:23:59.957Z,99703.19
2024-02-09T13:26:27.266Z,99666.88
2024-02-09T13:28:54.714Z,99694.16
2024-02-09T13:31:23.182Z,99661.56
2024-02-09T13:33:50.619Z,99694.50
2024-02-09T13:36:22.264Z,99682.31
2024-02-09T13:39:10.983Z,99660.72
2024-02-09T13:41:40.499Z,99682.19
2024-02-09T13:44:09.955Z,99683.25
2024-02-09T13:46:37.224Z,99676.28
2024-02-09T13:49:04.690Z,99684.66
2024-02-09T13:51:32.217Z,99686.00
2024-02-09T13:53:59.556Z,99691.91
2024-02-09T13:56:31.332Z,99690.63
2024-02-09T13:59:00.813Z,99687.00
2024-02-09T14:01:28.087Z,99677.66
2024-02-09T14:03:55.436Z,99686.34
2024-02-09T14:06:23.864Z,99658.38
2024-02-09T14:08:51.168Z,99677.47
2024-02-09T14:11:18.518Z,99691.00
2024-02-09T14:13:47.242Z,99659.50
2024-02-09T14:16:14.584Z,99695.78
2024-02-09T14:18:41.920Z,99696.41
2024-02-09T14:21:09.194Z,99701.28
2024-02-09T14:23:36.423Z,99701.31
2024-02-09T14:26:04.028Z,99697.31
2024-02-09T14:28:35.951Z,99692.78
2024-02-09T14:31:05.016Z,99696.38
2024-02-09T14:33:33.379Z,99672.91
2024-02-09T14:36:00.676Z,99707.22
2024-02-09T14:38:29.532Z,99702.63
2024-02-09T14:41:00.166Z,99700.09
2024-02-09T14:43:29.481Z,99704.50
2024-02-09T14:46:05.719Z,99707.69
2024-02-09T14:48:58.609Z,99710.16
2024-02-09T14:51:30.419Z,99718.38
2024-02-09T14:53:59.750Z,99723.66
2024-02-09T14:56:27.136Z,99734.41
2024-02-09T14:58:54.373Z,99735.09
2024-02-09T15:01:21.796Z,99749.25
2024-02-09T15:03:49.218Z,99736.19
2024-02-09T15:06:23.129Z,99762.34
2024-02-09T15:09:10.552Z,99762.59
2024-02-09T15:11:39.184Z,99763.28
2024-02-09T15:14:08.929Z,99764.84
2024-02-09T15:16:36.473Z,99763.25
2024-02-09T15:19:06.069Z,99763.41
2024-02-09T15:21:34.932Z,99762.16
2024-02-09T15:24:04.748Z,99749.91
2024-02-09T15:26:32.136Z,99767.44
2024-02-09T15:29:03.219Z,99767.00
2024-02-09T15:31:31.900Z,99769.28
2024-02-09T15:33:59.234Z,99781.97
2024-02-09T15:36:26.822Z,99784.31
2024-02-09T15:38:55.561Z,99789.22
2024-02-09T15:41:22.947Z,99806.00
2024-02-09T15:43:50.326Z,99799.41
2024-02-09T15:46:17.817Z,99817.16
2024-02-09T15:48:45.698Z,99808.97
2024-02-09T15:51:21.378Z,99816.19
2024-02-09T15:53:53.120Z,99819.31
2024-02-09T15:56:25.987Z,99832.34
2024-02-09T15:58:54.023Z,99820.28
2024-02-09T16:01:21.555Z,99837.84
2024-02-09T16:03:48.831Z,99827.75
2024-02-09T16:06:16.342Z,99856.47
2024-02-09T16:08:45.751Z,99859.59
2024-02-09T16:11:13.080Z,99868.22
2024-02-09T16:13:41.820Z,99871.44
2024-02-09T16:16:09.686Z,99833.38
2024-02-09T16:18:38.787Z,99882.31
2024-02-09T16:21:08.339Z,99878.97
2024-02-09T16:23:35.958Z,99878.47
2024-02-09T16:26:05.937Z,99875.28
2024-02-09T16:28:33.961Z,99877.19
2024-02-09T16:31:07.226Z,99871.41
2024-02-09T16:33:35.400Z,99850.41
2024-02-09T16:36:02.864Z,99873.41
2024-02-09T16:38:30.330Z,99875.31
2024-02-09T16:40:57.656Z,99879.94
2024-02-09T16:43:25.000Z,99881.72
2024-02-09T16:45:52.206Z,99875.78
2024-02-09T16:48:20.991Z,99876.69
2024-02-09T16:50:48.408Z,99876.81
2024-02-09T16:53:17.411Z,99855.69
2024-02-09T16:58:28.198Z,99864.13
2024-02-09T17:00:55.568Z,99865.22
2024-02-09T17:03:28.177Z,99871.34
2024-02-09T17:05:55.635Z,99826.38
2024-02-09T17:08:25.776Z,99865.56
2024-02-09T17:10:53.109Z,99832.56
2024-02-09T17:13:20.455Z,99881.56
2024-02-09T17:15:49.967Z,99880.94
2024-02-09T17:18:17.655Z,99889.78
2024-02-09T17:20:46.476Z,99884.00
2024-02-09T17:23:14.045Z,99866.94
2024-02-09T17:25:43.760Z,99860.63
2024-02-09T17:28:11.066Z,99878.25
2024-02-09T17:30:38.322Z,99822.78
2024-02-09T17:33:05.886Z,99850.19
2024-02-09T17:35:33.354Z,99837.31
2024-02-09T17:38:02.226Z,99879.94
2024-02-09T17:40:29.670Z,99873.09
2024-02-09T17:42:56.900Z,99877.56
2024-02-09T17:45:24.191Z,99878.53
2024-02-09T17:47:52.394Z,99888.91
2024-02-09T17:50:19.842Z,99891.44
2024-02-09T17:52:47.267Z,99841.31
2024-02-09T17:58:11.799Z,99895.75
2024-02-09T18:00:43.486Z,99897.84
2024-02-09T18:06:04.346Z,99885.75
2024-02-09T18:08:31.768Z,99837.63
2024-02-09T18:11:00.532Z,99877.63
2024-02-09T18:13:36.683Z,99883.88
2024-02-09T18:16:24.032Z,99877.31
2024-02-09T18:18:55.683Z,99884.22
2024-02-09T18:21:26.996Z,99891.25
2024-02-09T18:23:54.244Z,99889.75
2024-02-09T18:26:22.945Z,99890.34
2024-02-09T18:28:50.749Z,99859.63
2024-02-09T18:31:18.186Z,99893.72
2024-02-09T18:33:47.905Z,99890.44
2024-02-09T18:36:15.320Z,99895.44
2024-02-09T18:38:42.678Z,99910.78
2024-02-09T18:41:12.085Z,99861.91
2024-02-09T18:43:40.875Z,99907.22
2024-02-09T18:46:08.113Z,99908.34
2024-02-09T18:48:39.702Z,99917.69
2024-02-09T18:51:07.129Z,99916.63
2024-02-09T18:56:33.735Z,99908.78
2024-02-09T18:59:02.401Z,99918.75
2024-02-09T19:01:32.029Z,99928.94
2024-02-09T19:03:59.369Z,99929.75
2024-02-09T19:06:26.629Z,99937.47
2024-02-09T19:08:53.920Z,99937.47
2024-02-09T19:14:05.833Z,99941.00
2024-02-09T19:16:33.156Z,99935.84
2024-02-09T19:19:00.874Z,99947.16
2024-02-09T19:21:28.520Z,99945.72
2024-02-09T19:23:55.819Z,99945.16
2024-02-09T19:26:23.394Z,99962.47
2024-02-09T19:28:51.144Z,99953.56
2024-02-09T19:31:20.171Z,99957.69
2024-02-09T19:33:49.912Z,99944.72
2024-02-09T19:36:17.468Z,99928.50
2024-02-09T19:38:44.722Z,99954.25
2024-02-09T19:41:12.082Z,99950.06
2024-02-09T19:43:40.338Z,99953.56
2024-02-09T19:46:07.748Z,99944.19
2024-02-09T19:48:36.540Z,99958.59
2024-02-09T19:51:04.223Z,99945.69
2024-02-09T19:53:31.561Z,99943.91
2024-02-09T19:55:59.252Z,99950.09
2024-02-09T19:58:26.713Z,99946.16
2024-02-09T20:00:56.064Z,99947.00
2024-02-09T20:03:27.712Z,99949.28
2024-02-09T20:05:57.444Z,99943.09
2024-02-09T20:08:24.734Z,99938.81
2024-02-09T20:10:53.208Z,99934.44
2024-02-09T20:13:21.819Z,99943.09
2024-02-09T20:16:12.561Z,99918.13
2024-02-09T20:18:41.711Z,99936.88
2024-02-09T20:21:14.707Z,99882.56
2024-02-09T20:23:42.261Z,99850.53
2024-02-09T20:26:09.686Z,99923.00
2024-02-09T20:28:37.034Z,99918.56
2024-02-09T20:31:04.509Z,99924.06
2024-02-09T20:33:32.964Z,99922.97
2024-02-09T20:36:00.203Z,99925.59
2024-02-09T20:38:29.012Z,99928.28
2024-02-09T20:40:56.298Z,99923.81
2024-02-09T20:43:23.691Z,99923.56
2024-02-09T20:45:51.039Z,99921.63
2024-02-09T20:48:18.398Z,99913.59
2024-02-09T20:50:45.751Z,99918.50
2024-02-09T20:53:13.090Z,99914.78
2024-02-09T20:55:42.380Z,99916.38
2024-02-09T20:58:12.214Z,99913.75
2024-02-09T21:00:40.982Z,99921.28
2024-02-09T21:03:09.686Z,99908.34
2024-02-09T21:05:37.750Z,99917.09
2024-02-09T21:08:06.413Z,99924.31
2024-02-09T21:10:34.003Z,99924.69
2024-02-09T21:13:02.754Z,99913.78
2024-02-09T21:15:30.157Z,99930.75
2024-02-09T21:18:01.821Z,99907.16
2024-02-09T21:20:29.599Z,99913.78
2024-02-09T21:22:57.281Z,99942.16
2024-02-09T21:25:25.323Z,99930.03
2024-02-09T21:27:57.415Z,99927.59
2024-02-09T21:30:30.479Z,99919.16
2024-02-09T21:33:01.566Z,99922.13
2024-02-09T21:35:30.656Z,99923.94
2024-02-09T21:37:58.845Z,99892.72
2024-02-09T21:40:30.558Z,99939.75
2024-02-09T21:43:02.541Z,99936.19
2024-02-09T21:45:32.115Z,99935.44
2024-02-09T21:48:04.250Z,99937.72
2024-02-09T21:53:32.780Z,99931.25
2024-02-09T21:56:00.462Z,99930.84
2024-02-09T21:58:28.088Z,99930.94
2024-02-09T22:01:00.274Z,99920.03
2024-02-09T22:03:31.969Z,99924.63
2024-02-09T22:06:01.415Z,99921.59
2024-02-09T22:08:29.601Z,99934.53
2024-02-09T22:10:56.816Z,99915.00
2024-02-09T22:13:24.088Z,99953.63
2024-02-09T22:18:33.888Z,99954.47
2024-02-09T22:21:08.826Z,99954.47
2024-02-09T22:23:37.337Z,99952.81
2024-02-09T22:26:06.840Z,99965.78
2024-02-09T22:28:35.253Z,99952.00
2024-02-09T22:31:02.455Z,99913.28
2024-02-09T22:33:34.994Z,99941.59
2024-02-09T22:36:23.446Z,99931.22
2024-02-09T22:38:50.844Z,99905.03
2024-02-09T22:41:25.964Z,99918.00
2024-02-09T22:43:52.964Z,99919.81
2024-02-09T22:46:20.369Z,99911.13
2024-02-09T22:48:48.105Z,99890.72
2024-02-09T22:51:15.384Z,99913.66
2024-02-09T22:53:56.265Z,99925.63
2024-02-09T22:56:27.112Z,99933.47
2024-02-09T22:58:54.560Z,99934.09
2024-02-09T23:01:21.980Z,99926.44
2024-02-09T23:03:49.547Z,99934.34
2024-02-09T23:06:16.864Z,99929.34
2024-02-09T23:08:45.508Z,99931.03
2024-02-09T23:11:12.846Z,99932.72
2024-02-09T23:13:40.064Z,99932.66
2024-02-09T23:16:09.780Z,99936.06
2024-02-09T23:18:41.400Z,99938.69
2024-02-09T23:21:12.126Z,99923.34
2024-02-09T23:23:39.370Z,99929.75
2024-02-09T23:26:07.993Z,99915.53
2024-02-09T23:28:35.145Z,99930.97
2024-02-09T23:31:02.389Z,99937.22
2024-02-09T23:33:29.746Z,99944.31
2024-02-09T23:35:57.257Z,99946.88
2024-02-09T23:38:24.482Z,99935.69
2024-02-09T23:40:52.360Z,99928.94
2024-02-09T23:43:20.999Z,99935.25
2024-02-09T23:45:50.378Z,99919.94
2024-02-09T23:48:17.697Z,99925.06
2024-02-09T23:50:45.009Z,99941.41
2024-02-09T23:53:12.276Z,99935.38
2024-02-09T23:55:40.605Z,99932.91
2024-02-09T23:58:29.180Z,99923.50
